sensor_id;sensor_type;location;lat;lon;timestamp;temperature;humidity
8662;DHT22;29684;47.722;9.388;2024-02-21T00:00:57;3.90;99.90
8662;DHT22;29684;47.722;9.388;2024-02-21T00:03:41;3.80;99.90
8662;DHT22;29684;47.722;9.388;2024-02-21T00:06:25;3.80;99.90
8662;DHT22;29684;47.722;9.388;2024-02-21T00:09:10;3.80;99.90
8662;DHT22;29684;47.722;9.388;2024-02-21T00:11:54;3.90;99.90
8662;DHT22;29684;47.722;9.388;2024-02-21T00:14:38;3.80;99.90
8662;DHT22;29684;47.722;9.388;2024-02-21T00:17:22;3.90;99.90
8662;DHT22;29684;47.722;9.388;2024-02-21T00:20:07;4.00;99.90
8662;DHT22;29684;47.722;9.388;2024-02-21T00:22:51;4.00;99.90
8662;DHT22;29684;47.722;9.388;2024-02-21T00:25:35;4.10;99.90
8662;DHT22;29684;47.722;9.388;2024-02-21T00:28:19;4.00;99.90
8662;DHT22;29684;47.722;9.388;2024-02-21T00:31:03;4.00;99.90
8662;DHT22;29684;47.722;9.388;2024-02-21T00:33:48;3.60;99.90
8662;DHT22;29684;47.722;9.388;2024-02-21T00:36:32;3.40;99.90
8662;DHT22;29684;47.722;9.388;2024-02-21T00:39:16;3.10;99.90
8662;DHT22;29684;47.722;9.388;2024-02-21T00:42:00;2.90;99.90
8662;DHT22;29684;47.722;9.388;2024-02-21T00:44:45;2.90;99.90
8662;DHT22;29684;47.722;9.388;2024-02-21T00:47:29;4.10;99.90
8662;DHT22;29684;47.722;9.388;2024-02-21T00:50:14;3.20;99.90
8662;DHT22;29684;47.722;9.388;2024-02-21T00:52:58;3.10;99.90
8662;DHT22;29684;47.722;9.388;2024-02-21T00:55:42;3.10;99.90
8662;DHT22;29684;47.722;9.388;2024-02-21T00:58:27;3.00;99.90
8662;DHT22;29684;47.722;9.388;2024-02-21T01:01:11;3.00;99.90
8662;DHT22;29684;47.722;9.388;2024-02-21T01:03:55;3.10;99.90
8662;DHT22;29684;47.722;9.388;2024-02-21T01:06:39;3.10;99.90
8662;DHT22;29684;47.722;9.388;2024-02-21T01:09:26;3.20;99.90
8662;DHT22;29684;47.722;9.388;2024-02-21T01:12:11;3.20;99.90
8662;DHT22;29684;47.722;9.388;2024-02-21T01:14:55;3.20;99.90
8662;DHT22;29684;47.722;9.388;2024-02-21T01:17:40;3.30;99.90
8662;DHT22;29684;47.722;9.388;2024-02-21T01:20:24;3.40;99.90
8662;DHT22;29684;47.722;9.388;2024-02-21T01:23:08;3.40;99.90
8662;DHT22;29684;47.722;9.388;2024-02-21T01:25:52;3.30;99.90
8662;DHT22;29684;47.722;9.388;2024-02-21T01:28:38;3.40;99.90
8662;DHT22;29684;47.722;9.388;2024-02-21T01:31:22;3.30;99.90
8662;DHT22;29684;47.722;9.388;2024-02-21T01:34:06;3.30;99.90
8662;DHT22;29684;47.722;9.388;2024-02-21T01:36:50;3.30;99.90
8662;DHT22;29684;47.722;9.388;2024-02-21T01:39:35;3.40;99.90
8662;DHT22;29684;47.722;9.388;2024-02-21T01:42:19;3.40;99.90
8662;DHT22;29684;47.722;9.388;2024-02-21T01:45:04;3.40;99.90
8662;DHT22;29684;47.722;9.388;2024-02-21T01:47:49;3.40;99.90
8662;DHT22;29684;47.722;9.388;2024-02-21T01:50:33;3.60;99.90
8662;DHT22;29684;47.722;9.388;2024-02-21T01:53:25;3.40;99.90
8662;DHT22;29684;47.722;9.388;2024-02-21T01:56:12;3.20;99.90
8662;DHT22;29684;47.722;9.388;2024-02-21T01:58:57;3.10;99.90
8662;DHT22;29684;47.722;9.388;2024-02-21T02:01:41;3.20;99.90
8662;DHT22;29684;47.722;9.388;2024-02-21T02:04:25;3.10;99.90
8662;DHT22;29684;47.722;9.388;2024-02-21T02:07:11;3.10;99.90
8662;DHT22;29684;47.722;9.388;2024-02-21T02:09:55;2.80;99.90
8662;DHT22;29684;47.722;9.388;2024-02-21T02:12:40;2.70;99.90
8662;DHT22;29684;47.722;9.388;2024-02-21T02:15:24;2.80;99.90
8662;DHT22;29684;47.722;9.388;2024-02-21T02:18:09;2.90;99.90
8662;DHT22;29684;47.722;9.388;2024-02-21T02:20:53;2.90;99.90
8662;DHT22;29684;47.722;9.388;2024-02-21T02:23:37;2.90;99.90
8662;DHT22;29684;47.722;9.388;2024-02-21T02:26:21;3.00;99.90
8662;DHT22;29684;47.722;9.388;2024-02-21T02:29:05;3.10;99.90
8662;DHT22;29684;47.722;9.388;2024-02-21T02:31:50;3.20;99.90
8662;DHT22;29684;47.722;9.388;2024-02-21T02:34:35;3.10;99.90
8662;DHT22;29684;47.722;9.388;2024-02-21T02:37:19;3.20;99.90
8662;DHT22;29684;47.722;9.388;2024-02-21T02:40:03;3.00;99.90
8662;DHT22;29684;47.722;9.388;2024-02-21T02:42:48;3.00;99.90
8662;DHT22;29684;47.722;9.388;2024-02-21T02:45:33;3.10;99.90
8662;DHT22;29684;47.722;9.388;2024-02-21T02:48:17;3.10;99.90
8662;DHT22;29684;47.722;9.388;2024-02-21T02:51:01;3.20;99.90
8662;DHT22;29684;47.722;9.388;2024-02-21T02:53:46;3.30;99.90
8662;DHT22;29684;47.722;9.388;2024-02-21T02:56:30;3.30;99.90
8662;DHT22;29684;47.722;9.388;2024-02-21T02:59:14;3.30;99.90
8662;DHT22;29684;47.722;9.388;2024-02-21T03:01:58;3.20;99.90
8662;DHT22;29684;47.722;9.388;2024-02-21T03:04:43;3.20;99.90
8662;DHT22;29684;47.722;9.388;2024-02-21T03:07:28;3.30;99.90
8662;DHT22;29684;47.722;9.388;2024-02-21T03:10:13;3.40;99.90
8662;DHT22;29684;47.722;9.388;2024-02-21T03:12:57;3.30;99.90
8662;DHT22;29684;47.722;9.388;2024-02-21T03:15:41;3.40;99.90
8662;DHT22;29684;47.722;9.388;2024-02-21T03:18:26;3.10;99.90
8662;DHT22;29684;47.722;9.388;2024-02-21T03:21:10;3.00;99.90
8662;DHT22;29684;47.722;9.388;2024-02-21T03:23:54;3.00;99.90
8662;DHT22;29684;47.722;9.388;2024-02-21T03:26:38;3.10;99.90
8662;DHT22;29684;47.722;9.388;2024-02-21T03:29:22;3.20;99.90
8662;DHT22;29684;47.722;9.388;2024-02-21T03:32:06;4.90;99.90
8662;DHT22;29684;47.722;9.388;2024-02-21T03:34:50;3.40;99.90
8662;DHT22;29684;47.722;9.388;2024-02-21T03:37:34;3.50;99.90
8662;DHT22;29684;47.722;9.388;2024-02-21T03:40:19;3.50;99.90
8662;DHT22;29684;47.722;9.388;2024-02-21T03:43:03;3.40;99.90
8662;DHT22;29684;47.722;9.388;2024-02-21T03:45:47;3.40;99.90
8662;DHT22;29684;47.722;9.388;2024-02-21T03:48:31;3.50;99.90
8662;DHT22;29684;47.722;9.388;2024-02-21T03:51:15;3.40;99.90
8662;DHT22;29684;47.722;9.388;2024-02-21T03:53:59;3.40;99.90
8662;DHT22;29684;47.722;9.388;2024-02-21T03:56:43;3.50;99.90
8662;DHT22;29684;47.722;9.388;2024-02-21T03:59:28;3.50;99.90
8662;DHT22;29684;47.722;9.388;2024-02-21T04:02:12;3.50;99.90
8662;DHT22;29684;47.722;9.388;2024-02-21T04:04:56;3.50;99.90
8662;DHT22;29684;47.722;9.388;2024-02-21T04:07:40;3.50;99.90
8662;DHT22;29684;47.722;9.388;2024-02-21T04:10:24;3.50;99.90
8662;DHT22;29684;47.722;9.388;2024-02-21T04:13:09;3.50;99.90
8662;DHT22;29684;47.722;9.388;2024-02-21T04:15:54;3.60;99.90
8662;DHT22;29684;47.722;9.388;2024-02-21T04:18:39;3.50;99.90
8662;DHT22;29684;47.722;9.388;2024-02-21T04:21:23;3.60;99.90
8662;DHT22;29684;47.722;9.388;2024-02-21T04:24:08;3.60;99.90
8662;DHT22;29684;47.722;9.388;2024-02-21T04:26:52;3.60;99.90
8662;DHT22;29684;47.722;9.388;2024-02-21T04:29:36;3.60;99.90
8662;DHT22;29684;47.722;9.388;2024-02-21T04:32:20;3.70;99.90
8662;DHT22;29684;47.722;9.388;2024-02-21T04:35:04;3.80;99.90
8662;DHT22;29684;47.722;9.388;2024-02-21T04:37:49;3.80;99.90
8662;DHT22;29684;47.722;9.388;2024-02-21T04:40:33;3.90;99.90
8662;DHT22;29684;47.722;9.388;2024-02-21T04:43:18;3.90;99.90
8662;DHT22;29684;47.722;9.388;2024-02-21T04:46:02;4.00;99.90
8662;DHT22;29684;47.722;9.388;2024-02-21T04:48:46;4.40;99.90
8662;DHT22;29684;47.722;9.388;2024-02-21T04:51:30;4.60;99.90
8662;DHT22;29684;47.722;9.388;2024-02-21T04:54:14;4.70;99.90
8662;DHT22;29684;47.722;9.388;2024-02-21T04:56:58;5.00;99.90
8662;DHT22;29684;47.722;9.388;2024-02-21T04:59:44;5.10;99.90
8662;DHT22;29684;47.722;9.388;2024-02-21T05:02:29;5.20;99.90
8662;DHT22;29684;47.722;9.388;2024-02-21T05:05:14;5.20;99.90
8662;DHT22;29684;47.722;9.388;2024-02-21T05:08:01;5.30;99.90
8662;DHT22;29684;47.722;9.388;2024-02-21T05:10:45;5.20;99.90
8662;DHT22;29684;47.722;9.388;2024-02-21T05:13:29;5.00;99.90
8662;DHT22;29684;47.722;9.388;2024-02-21T05:16:14;4.80;99.90
8662;DHT22;29684;47.722;9.388;2024-02-21T05:18:58;4.80;99.90
8662;DHT22;29684;47.722;9.388;2024-02-21T05:21:42;4.80;99.90
8662;DHT22;29684;47.722;9.388;2024-02-21T05:24:26;5.50;99.90
8662;DHT22;29684;47.722;9.388;2024-02-21T05:27:10;4.80;99.90
8662;DHT22;29684;47.722;9.388;2024-02-21T05:29:54;4.70;99.90
8662;DHT22;29684;47.722;9.388;2024-02-21T05:32:38;4.50;99.90
8662;DHT22;29684;47.722;9.388;2024-02-21T05:35:27;4.30;99.90
8662;DHT22;29684;47.722;9.388;2024-02-21T05:38:11;4.10;99.90
8662;DHT22;29684;47.722;9.388;2024-02-21T05:40:55;4.00;99.90
8662;DHT22;29684;47.722;9.388;2024-02-21T05:43:40;4.40;99.90
8662;DHT22;29684;47.722;9.388;2024-02-21T05:46:25;3.70;99.90
8662;DHT22;29684;47.722;9.388;2024-02-21T05:49:09;3.40;99.90
8662;DHT22;29684;47.722;9.388;2024-02-21T05:51:53;3.30;99.90
8662;DHT22;29684;47.722;9.388;2024-02-21T05:54:40;3.30;99.90
8662;DHT22;29684;47.722;9.388;2024-02-21T05:57:24;3.30;99.90
8662;DHT22;29684;47.722;9.388;2024-02-21T06:00:08;3.30;99.90
8662;DHT22;29684;47.722;9.388;2024-02-21T06:02:52;3.40;99.90
8662;DHT22;29684;47.722;9.388;2024-02-21T06:05:37;3.60;99.90
8662;DHT22;29684;47.722;9.388;2024-02-21T06:08:22;3.60;99.90
8662;DHT22;29684;47.722;9.388;2024-02-21T06:11:06;3.60;99.90
8662;DHT22;29684;47.722;9.388;2024-02-21T06:13:50;3.60;99.90
8662;DHT22;29684;47.722;9.388;2024-02-21T06:16:34;3.70;99.90
8662;DHT22;29684;47.722;9.388;2024-02-21T06:19:18;4.00;99.90
8662;DHT22;29684;47.722;9.388;2024-02-21T06:22:02;3.80;99.90
8662;DHT22;29684;47.722;9.388;2024-02-21T06:24:52;3.50;99.90
8662;DHT22;29684;47.722;9.388;2024-02-21T06:27:38;3.40;99.90
8662;DHT22;29684;47.722;9.388;2024-02-21T06:30:22;3.30;99.90
8662;DHT22;29684;47.722;9.388;2024-02-21T06:33:06;3.30;99.90
8662;DHT22;29684;47.722;9.388;2024-02-21T06:35:51;3.30;99.90
8662;DHT22;29684;47.722;9.388;2024-02-21T06:38:37;3.40;99.90
8662;DHT22;29684;47.722;9.388;2024-02-21T06:41:21;3.40;99.90
8662;DHT22;29684;47.722;9.388;2024-02-21T06:44:05;3.20;99.90
8662;DHT22;29684;47.722;9.388;2024-02-21T06:46:49;3.10;99.90
8662;DHT22;29684;47.722;9.388;2024-02-21T06:49:34;3.10;99.90
8662;DHT22;29684;47.722;9.388;2024-02-21T06:52:18;2.80;99.90
8662;DHT22;29684;47.722;9.388;2024-02-21T06:55:04;2.80;99.90
8662;DHT22;29684;47.722;9.388;2024-02-21T06:57:49;2.80;99.90
8662;DHT22;29684;47.722;9.388;2024-02-21T07:00:33;2.80;99.90
8662;DHT22;29684;47.722;9.388;2024-02-21T07:03:17;3.30;99.90
8662;DHT22;29684;47.722;9.388;2024-02-21T07:06:01;3.50;99.90
8662;DHT22;29684;47.722;9.388;2024-02-21T07:08:46;3.40;99.90
8662;DHT22;29684;47.722;9.388;2024-02-21T07:11:30;3.60;99.90
8662;DHT22;29684;47.722;9.388;2024-02-21T07:14:15;3.90;99.90
8662;DHT22;29684;47.722;9.388;2024-02-21T07:17:02;4.20;99.90
8662;DHT22;29684;47.722;9.388;2024-02-21T07:19:46;4.30;99.90
8662;DHT22;29684;47.722;9.388;2024-02-21T07:22:30;4.10;99.90
8662;DHT22;29684;47.722;9.388;2024-02-21T07:25:14;4.10;99.90
8662;DHT22;29684;47.722;9.388;2024-02-21T07:27:58;4.10;99.90
8662;DHT22;29684;47.722;9.388;2024-02-21T07:30:42;4.20;99.90
8662;DHT22;29684;47.722;9.388;2024-02-21T07:33:27;4.20;99.90
8662;DHT22;29684;47.722;9.388;2024-02-21T07:36:11;4.40;99.90
8662;DHT22;29684;47.722;9.388;2024-02-21T07:38:55;4.60;99.90
8662;DHT22;29684;47.722;9.388;2024-02-21T07:41:39;4.30;99.90
8662;DHT22;29684;47.722;9.388;2024-02-21T07:44:25;4.20;99.90
8662;DHT22;29684;47.722;9.388;2024-02-21T07:47:09;4.20;99.90
8662;DHT22;29684;47.722;9.388;2024-02-21T07:49:53;4.20;99.90
8662;DHT22;29684;47.722;9.388;2024-02-21T07:52:37;4.20;99.90
8662;DHT22;29684;47.722;9.388;2024-02-21T07:55:22;4.30;99.90
8662;DHT22;29684;47.722;9.388;2024-02-21T07:58:06;4.30;99.90
8662;DHT22;29684;47.722;9.388;2024-02-21T08:00:53;4.40;99.90
8662;DHT22;29684;47.722;9.388;2024-02-21T08:03:37;4.50;99.90
8662;DHT22;29684;47.722;9.388;2024-02-21T08:06:21;4.60;99.90
8662;DHT22;29684;47.722;9.388;2024-02-21T08:09:06;4.60;99.90
8662;DHT22;29684;47.722;9.388;2024-02-21T08:11:50;4.70;99.90
8662;DHT22;29684;47.722;9.388;2024-02-21T08:14:34;4.90;99.90
8662;DHT22;29684;47.722;9.388;2024-02-21T08:17:18;4.90;99.90
8662;DHT22;29684;47.722;9.388;2024-02-21T08:20:04;4.90;99.90
8662;DHT22;29684;47.722;9.388;2024-02-21T08:22:49;5.00;99.90
8662;DHT22;29684;47.722;9.388;2024-02-21T08:25:33;5.50;99.90
8662;DHT22;29684;47.722;9.388;2024-02-21T08:28:17;5.40;99.90
8662;DHT22;29684;47.722;9.388;2024-02-21T08:31:01;5.50;99.90
8662;DHT22;29684;47.722;9.388;2024-02-21T08:33:45;5.50;99.90
8662;DHT22;29684;47.722;9.388;2024-02-21T08:36:33;5.70;99.90
8662;DHT22;29684;47.722;9.388;2024-02-21T08:39:18;5.70;99.90
8662;DHT22;29684;47.722;9.388;2024-02-21T08:42:02;5.80;99.90
8662;DHT22;29684;47.722;9.388;2024-02-21T08:44:46;5.90;99.90
8662;DHT22;29684;47.722;9.388;2024-02-21T08:47:31;5.90;99.90
8662;DHT22;29684;47.722;9.388;2024-02-21T08:50:15;6.00;99.90
8662;DHT22;29684;47.722;9.388;2024-02-21T08:52:59;6.20;99.90
8662;DHT22;29684;47.722;9.388;2024-02-21T08:55:43;6.20;99.90
8662;DHT22;29684;47.722;9.388;2024-02-21T08:58:28;6.00;99.90
8662;DHT22;29684;47.722;9.388;2024-02-21T09:01:13;6.10;99.90
8662;DHT22;29684;47.722;9.388;2024-02-21T09:03:59;6.40;99.90
8662;DHT22;29684;47.722;9.388;2024-02-21T09:06:43;6.50;99.90
8662;DHT22;29684;47.722;9.388;2024-02-21T09:09:27;7.10;99.90
8662;DHT22;29684;47.722;9.388;2024-02-21T09:12:12;7.50;99.90
8662;DHT22;29684;47.722;9.388;2024-02-21T09:14:59;7.70;99.90
8662;DHT22;29684;47.722;9.388;2024-02-21T09:17:43;7.70;99.90
8662;DHT22;29684;47.722;9.388;2024-02-21T09:20:27;7.60;99.90
8662;DHT22;29684;47.722;9.388;2024-02-21T09:23:13;7.70;99.90
8662;DHT22;29684;47.722;9.388;2024-02-21T09:25:57;7.70;99.90
8662;DHT22;29684;47.722;9.388;2024-02-21T09:28:44;7.50;99.90
8662;DHT22;29684;47.722;9.388;2024-02-21T09:31:29;7.30;99.90
8662;DHT22;29684;47.722;9.388;2024-02-21T09:34:13;7.20;99.90
8662;DHT22;29684;47.722;9.388;2024-02-21T09:36:57;7.40;99.90
8662;DHT22;29684;47.722;9.388;2024-02-21T09:39:42;7.40;99.90
8662;DHT22;29684;47.722;9.388;2024-02-21T09:42:40;7.50;99.90
8662;DHT22;29684;47.722;9.388;2024-02-21T09:45:25;7.40;99.90
8662;DHT22;29684;47.722;9.388;2024-02-21T09:51:15;7.40;99.90
8662;DHT22;29684;47.722;9.388;2024-02-21T09:54:01;7.40;99.90
8662;DHT22;29684;47.722;9.388;2024-02-21T09:56:47;7.30;99.90
8662;DHT22;29684;47.722;9.388;2024-02-21T09:59:32;7.50;99.90
8662;DHT22;29684;47.722;9.388;2024-02-21T10:02:17;7.50;99.90
8662;DHT22;29684;47.722;9.388;2024-02-21T10:05:02;7.50;99.90
8662;DHT22;29684;47.722;9.388;2024-02-21T10:07:49;7.50;99.90
8662;DHT22;29684;47.722;9.388;2024-02-21T10:10:43;8.10;99.90
8662;DHT22;29684;47.722;9.388;2024-02-21T10:13:29;8.30;99.90
8662;DHT22;29684;47.722;9.388;2024-02-21T10:16:13;8.40;99.90
8662;DHT22;29684;47.722;9.388;2024-02-21T10:18:57;8.40;99.90
8662;DHT22;29684;47.722;9.388;2024-02-21T10:21:41;8.60;99.90
8662;DHT22;29684;47.722;9.388;2024-02-21T10:24:28;8.50;99.90
8662;DHT22;29684;47.722;9.388;2024-02-21T10:27:13;8.50;99.90
8662;DHT22;29684;47.722;9.388;2024-02-21T10:29:57;8.40;99.90
8662;DHT22;29684;47.722;9.388;2024-02-21T10:35:36;8.50;99.90
8662;DHT22;29684;47.722;9.388;2024-02-21T10:38:20;9.00;99.90
8662;DHT22;29684;47.722;9.388;2024-02-21T10:41:07;8.80;99.90
8662;DHT22;29684;47.722;9.388;2024-02-21T10:43:52;9.00;99.90
8662;DHT22;29684;47.722;9.388;2024-02-21T10:46:40;9.10;99.90
8662;DHT22;29684;47.722;9.388;2024-02-21T10:49:30;9.40;99.90
8662;DHT22;29684;47.722;9.388;2024-02-21T10:55:10;9.70;99.90
8662;DHT22;29684;47.722;9.388;2024-02-21T10:57:56;9.90;99.90
8662;DHT22;29684;47.722;9.388;2024-02-21T11:00:42;9.80;99.90
8662;DHT22;29684;47.722;9.388;2024-02-21T11:03:26;9.80;99.90
8662;DHT22;29684;47.722;9.388;2024-02-21T11:06:12;9.70;99.90
8662;DHT22;29684;47.722;9.388;2024-02-21T11:09:04;9.80;99.90
8662;DHT22;29684;47.722;9.388;2024-02-21T11:11:49;9.80;99.90
8662;DHT22;29684;47.722;9.388;2024-02-21T11:14:38;9.90;99.90
8662;DHT22;29684;47.722;9.388;2024-02-21T11:17:23;10.40;99.90
8662;DHT22;29684;47.722;9.388;2024-02-21T11:20:14;10.10;99.90
8662;DHT22;29684;47.722;9.388;2024-02-21T11:22:58;10.30;99.90
8662;DHT22;29684;47.722;9.388;2024-02-21T11:25:42;10.50;99.90
8662;DHT22;29684;47.722;9.388;2024-02-21T11:28:26;10.50;99.90
8662;DHT22;29684;47.722;9.388;2024-02-21T11:31:12;10.40;99.90
8662;DHT22;29684;47.722;9.388;2024-02-21T11:34:00;10.70;99.90
8662;DHT22;29684;47.722;9.388;2024-02-21T11:36:52;10.60;99.90
8662;DHT22;29684;47.722;9.388;2024-02-21T11:39:36;10.70;99.90
8662;DHT22;29684;47.722;9.388;2024-02-21T11:42:20;10.50;99.90
8662;DHT22;29684;47.722;9.388;2024-02-21T11:45:06;10.60;99.90
8662;DHT22;29684;47.722;9.388;2024-02-21T11:47:50;10.90;99.90
8662;DHT22;29684;47.722;9.388;2024-02-21T11:50:35;10.90;99.90
8662;DHT22;29684;47.722;9.388;2024-02-21T11:53:23;11.40;99.90
8662;DHT22;29684;47.722;9.388;2024-02-21T11:56:08;12.00;99.90
8662;DHT22;29684;47.722;9.388;2024-02-21T11:58:52;12.00;99.90
8662;DHT22;29684;47.722;9.388;2024-02-21T12:01:36;12.00;99.90
8662;DHT22;29684;47.722;9.388;2024-02-21T12:04:20;12.50;99.90
8662;DHT22;29684;47.722;9.388;2024-02-21T12:07:06;12.20;99.90
8662;DHT22;29684;47.722;9.388;2024-02-21T12:09:52;12.30;99.90
8662;DHT22;29684;47.722;9.388;2024-02-21T12:12:37;12.10;99.90
8662;DHT22;29684;47.722;9.388;2024-02-21T12:15:22;12.10;99.90
8662;DHT22;29684;47.722;9.388;2024-02-21T12:18:06;12.60;99.90
8662;DHT22;29684;47.722;9.388;2024-02-21T12:20:51;13.20;99.90
8662;DHT22;29684;47.722;9.388;2024-02-21T12:23:35;13.60;99.90
8662;DHT22;29684;47.722;9.388;2024-02-21T12:29:04;13.30;99.90
8662;DHT22;29684;47.722;9.388;2024-02-21T12:31:49;13.10;99.90
8662;DHT22;29684;47.722;9.388;2024-02-21T12:34:33;13.10;99.90
8662;DHT22;29684;47.722;9.388;2024-02-21T12:37:18;13.20;99.90
8662;DHT22;29684;47.722;9.388;2024-02-21T12:40:08;13.40;99.90
8662;DHT22;29684;47.722;9.388;2024-02-21T12:42:53;13.60;99.90
8662;DHT22;29684;47.722;9.388;2024-02-21T12:45:37;13.20;99.90
8662;DHT22;29684;47.722;9.388;2024-02-21T12:48:21;13.00;99.90
8662;DHT22;29684;47.722;9.388;2024-02-21T12:51:06;12.70;99.90
8662;DHT22;29684;47.722;9.388;2024-02-21T12:53:50;12.60;99.90
8662;DHT22;29684;47.722;9.388;2024-02-21T12:56:35;12.80;99.90
8662;DHT22;29684;47.722;9.388;2024-02-21T12:59:18;12.40;99.90
8662;DHT22;29684;47.722;9.388;2024-02-21T13:02:03;12.50;99.90
8662;DHT22;29684;47.722;9.388;2024-02-21T13:04:47;12.40;99.90
8662;DHT22;29684;47.722;9.388;2024-02-21T13:07:31;12.30;99.90
8662;DHT22;29684;47.722;9.388;2024-02-21T13:10:16;12.50;99.90
8662;DHT22;29684;47.722;9.388;2024-02-21T13:13:03;12.50;99.90
8662;DHT22;29684;47.722;9.388;2024-02-21T13:15:47;12.70;99.90
8662;DHT22;29684;47.722;9.388;2024-02-21T13:18:31;12.90;99.90
8662;DHT22;29684;47.722;9.388;2024-02-21T13:21:16;12.70;99.90
8662;DHT22;29684;47.722;9.388;2024-02-21T13:24:00;13.20;99.90
8662;DHT22;29684;47.722;9.388;2024-02-21T13:26:45;13.60;99.90
8662;DHT22;29684;47.722;9.388;2024-02-21T13:29:29;13.60;99.90
8662;DHT22;29684;47.722;9.388;2024-02-21T13:32:13;13.30;99.90
8662;DHT22;29684;47.722;9.388;2024-02-21T13:35:00;13.10;99.90
8662;DHT22;29684;47.722;9.388;2024-02-21T13:37:45;13.60;99.90
8662;DHT22;29684;47.722;9.388;2024-02-21T13:40:29;13.60;99.90
8662;DHT22;29684;47.722;9.388;2024-02-21T13:43:14;13.70;99.90
8662;DHT22;29684;47.722;9.388;2024-02-21T13:46:00;13.80;99.90
8662;DHT22;29684;47.722;9.388;2024-02-21T13:48:44;14.00;99.90
8662;DHT22;29684;47.722;9.388;2024-02-21T13:51:28;14.20;99.90
8662;DHT22;29684;47.722;9.388;2024-02-21T13:54:13;14.00;99.90
8662;DHT22;29684;47.722;9.388;2024-02-21T13:57:01;14.10;99.90
8662;DHT22;29684;47.722;9.388;2024-02-21T13:59:46;13.90;99.90
8662;DHT22;29684;47.722;9.388;2024-02-21T14:02:31;13.90;99.90
8662;DHT22;29684;47.722;9.388;2024-02-21T14:05:15;13.90;99.90
8662;DHT22;29684;47.722;9.388;2024-02-21T14:07:59;14.00;99.90
8662;DHT22;29684;47.722;9.388;2024-02-21T14:10:44;13.90;99.90
8662;DHT22;29684;47.722;9.388;2024-02-21T14:13:28;13.60;99.90
8662;DHT22;29684;47.722;9.388;2024-02-21T14:16:12;14.00;99.90
8662;DHT22;29684;47.722;9.388;2024-02-21T14:18:59;14.00;99.90
8662;DHT22;29684;47.722;9.388;2024-02-21T14:21:44;13.80;99.90
8662;DHT22;29684;47.722;9.388;2024-02-21T14:24:28;13.40;99.90
8662;DHT22;29684;47.722;9.388;2024-02-21T14:27:12;13.30;99.90
8662;DHT22;29684;47.722;9.388;2024-02-21T14:29:57;13.10;99.90
8662;DHT22;29684;47.722;9.388;2024-02-21T14:32:44;13.40;99.90
8662;DHT22;29684;47.722;9.388;2024-02-21T14:35:29;13.70;99.90
8662;DHT22;29684;47.722;9.388;2024-02-21T14:38:13;14.30;99.90
8662;DHT22;29684;47.722;9.388;2024-02-21T14:40:57;14.60;99.90
8662;DHT22;29684;47.722;9.388;2024-02-21T14:43:41;14.60;99.90
8662;DHT22;29684;47.722;9.388;2024-02-21T14:46:27;14.40;99.90
8662;DHT22;29684;47.722;9.388;2024-02-21T14:49:14;14.20;99.90
8662;DHT22;29684;47.722;9.388;2024-02-21T14:51:58;14.30;99.90
8662;DHT22;29684;47.722;9.388;2024-02-21T14:54:42;14.60;99.90
8662;DHT22;29684;47.722;9.388;2024-02-21T14:57:30;14.50;99.90
8662;DHT22;29684;47.722;9.388;2024-02-21T15:00:14;14.30;99.90
8662;DHT22;29684;47.722;9.388;2024-02-21T15:02:59;14.00;99.90
8662;DHT22;29684;47.722;9.388;2024-02-21T15:05:43;13.70;99.90
8662;DHT22;29684;47.722;9.388;2024-02-21T15:08:27;13.30;99.90
8662;DHT22;29684;47.722;9.388;2024-02-21T15:11:11;13.30;99.90
8662;DHT22;29684;47.722;9.388;2024-02-21T15:13:55;13.10;99.90
8662;DHT22;29684;47.722;9.388;2024-02-21T15:16:40;12.80;99.90
8662;DHT22;29684;47.722;9.388;2024-02-21T15:19:24;12.50;99.90
8662;DHT22;29684;47.722;9.388;2024-02-21T15:22:10;12.30;99.90
8662;DHT22;29684;47.722;9.388;2024-02-21T15:24:55;12.30;99.90
8662;DHT22;29684;47.722;9.388;2024-02-21T15:27:39;12.10;99.90
8662;DHT22;29684;47.722;9.388;2024-02-21T15:30:23;12.00;99.90
8662;DHT22;29684;47.722;9.388;2024-02-21T15:33:07;11.90;99.90
8662;DHT22;29684;47.722;9.388;2024-02-21T15:35:51;12.40;99.90
8662;DHT22;29684;47.722;9.388;2024-02-21T15:38:36;11.70;99.90
8662;DHT22;29684;47.722;9.388;2024-02-21T15:41:23;11.50;99.90
8662;DHT22;29684;47.722;9.388;2024-02-21T15:44:07;11.30;99.90
8662;DHT22;29684;47.722;9.388;2024-02-21T15:46:51;11.30;99.90
8662;DHT22;29684;47.722;9.388;2024-02-21T15:49:36;11.20;99.90
8662;DHT22;29684;47.722;9.388;2024-02-21T15:52:21;11.00;99.90
8662;DHT22;29684;47.722;9.388;2024-02-21T15:55:06;11.10;99.90
8662;DHT22;29684;47.722;9.388;2024-02-21T15:57:54;10.90;99.90
8662;DHT22;29684;47.722;9.388;2024-02-21T16:00:38;10.90;99.90
8662;DHT22;29684;47.722;9.388;2024-02-21T16:03:22;10.80;99.90
8662;DHT22;29684;47.722;9.388;2024-02-21T16:06:06;10.70;99.90
8662;DHT22;29684;47.722;9.388;2024-02-21T16:08:50;10.50;99.90
8662;DHT22;29684;47.722;9.388;2024-02-21T16:11:35;10.30;99.90
8662;DHT22;29684;47.722;9.388;2024-02-21T16:14:19;10.20;99.90
8662;DHT22;29684;47.722;9.388;2024-02-21T16:17:03;10.20;99.90
8662;DHT22;29684;47.722;9.388;2024-02-21T16:19:49;10.10;99.90
8662;DHT22;29684;47.722;9.388;2024-02-21T16:22:33;10.00;99.90
8662;DHT22;29684;47.722;9.388;2024-02-21T16:25:17;9.90;99.90
8662;DHT22;29684;47.722;9.388;2024-02-21T16:28:02;9.80;99.90
8662;DHT22;29684;47.722;9.388;2024-02-21T16:30:48;9.60;99.90
8662;DHT22;29684;47.722;9.388;2024-02-21T16:33:32;9.50;99.90
8662;DHT22;29684;47.722;9.388;2024-02-21T16:36:23;9.50;99.90
8662;DHT22;29684;47.722;9.388;2024-02-21T16:39:08;9.40;99.90
8662;DHT22;29684;47.722;9.388;2024-02-21T16:41:55;9.20;99.90
8662;DHT22;29684;47.722;9.388;2024-02-21T16:44:44;9.20;99.90
8662;DHT22;29684;47.722;9.388;2024-02-21T16:47:28;7.90;99.90
8662;DHT22;29684;47.722;9.388;2024-02-21T16:50:12;9.00;99.90
8662;DHT22;29684;47.722;9.388;2024-02-21T16:52:57;9.10;99.90
8662;DHT22;29684;47.722;9.388;2024-02-21T16:55:41;9.10;99.90
8662;DHT22;29684;47.722;9.388;2024-02-21T16:58:25;9.30;99.90
8662;DHT22;29684;47.722;9.388;2024-02-21T17:01:09;9.30;99.90
8662;DHT22;29684;47.722;9.388;2024-02-21T17:03:55;9.10;99.90
8662;DHT22;29684;47.722;9.388;2024-02-21T17:06:39;8.90;99.90
8662;DHT22;29684;47.722;9.388;2024-02-21T17:09:24;9.00;99.90
8662;DHT22;29684;47.722;9.388;2024-02-21T17:12:08;9.10;99.90
8662;DHT22;29684;47.722;9.388;2024-02-21T17:14:52;9.10;99.90
8662;DHT22;29684;47.722;9.388;2024-02-21T17:17:36;9.00;99.90
8662;DHT22;29684;47.722;9.388;2024-02-21T17:20:20;8.90;99.90
8662;DHT22;29684;47.722;9.388;2024-02-21T17:23:04;8.70;99.90
8662;DHT22;29684;47.722;9.388;2024-02-21T17:25:49;8.70;99.90
8662;DHT22;29684;47.722;9.388;2024-02-21T17:28:33;8.60;99.90
8662;DHT22;29684;47.722;9.388;2024-02-21T17:31:18;8.60;99.90
8662;DHT22;29684;47.722;9.388;2024-02-21T17:34:02;8.50;99.90
8662;DHT22;29684;47.722;9.388;2024-02-21T17:36:47;8.50;99.90
8662;DHT22;29684;47.722;9.388;2024-02-21T17:39:32;8.50;99.90
8662;DHT22;29684;47.722;9.388;2024-02-21T17:42:16;8.50;99.90
8662;DHT22;29684;47.722;9.388;2024-02-21T17:45:00;8.50;99.90
8662;DHT22;29684;47.722;9.388;2024-02-21T17:47:45;8.50;99.90
8662;DHT22;29684;47.722;9.388;2024-02-21T17:50:30;8.50;99.90
8662;DHT22;29684;47.722;9.388;2024-02-21T17:53:14;8.50;99.90
8662;DHT22;29684;47.722;9.388;2024-02-21T17:56:01;8.50;99.90
8662;DHT22;29684;47.722;9.388;2024-02-21T17:58:44;8.80;99.90
8662;DHT22;29684;47.722;9.388;2024-02-21T18:01:29;8.50;99.90